Time;durP1;ratioP1;P1;durP2;ratioP2;P2;SDS_P1;SDS_P2;PMS_P1;PMS_P2;Temp;Humidity;BMP_temperature;BMP_pressure;BME280_temperature;BME280_humidity;BME280_pressure;Samples;Min_cycle;Max_cycle;Signal;HPM_P1;HPM_P2
2021/09/20 00:01:41;;;;;;;12.25;8.88;;;;;;;15.14;98.62;98509.50;5025359;28;20194;-67
2021/09/20 00:04:06;;;;;;;15.60;8.75;;;;;;;15.19;98.65;98504.00;5025093;28;20258;-67
2021/09/20 00:06:32;;;;;;;10.65;6.97;;;;;;;15.23;98.57;98504.72;5025223;28;21054;-67
2021/09/20 00:08:57;;;;;;;13.45;8.23;;;;;;;15.22;98.84;98509.16;5024924;28;20025;-67
2021/09/20 00:11:23;;;;;;;13.45;8.20;;;;;;;15.22;98.94;98514.47;5025045;28;20025;-67
2021/09/20 00:13:48;;;;;;;10.45;7.93;;;;;;;15.16;99.43;98512.09;5025097;28;20325;-67
2021/09/20 00:16:14;;;;;;;12.77;8.40;;;;;;;15.20;99.27;98511.03;5024728;28;20021;-67
2021/09/20 00:18:39;;;;;;;11.00;7.72;;;;;;;15.18;98.83;98517.31;5024845;28;20029;-67
2021/09/20 00:21:05;;;;;;;12.73;8.60;;;;;;;15.17;98.66;98516.44;5025223;28;20021;-67
2021/09/20 00:23:30;;;;;;;9.27;7.03;;;;;;;15.19;98.59;98520.75;5025117;28;20356;-67
2021/09/20 00:25:58;;;;;;;8.15;7.10;;;;;;;15.21;98.42;98523.34;5023854;28;20026;-67
2021/09/20 00:28:24;;;;;;;14.93;7.78;;;;;;;15.15;98.84;98523.59;5024914;28;20298;-67
2021/09/20 00:30:49;;;;;;;13.20;8.05;;;;;;;15.12;99.11;98523.72;5025023;28;20225;-67
2021/09/20 00:33:15;;;;;;;9.88;7.30;;;;;;;15.17;99.14;98521.75;5024700;28;20080;-67
2021/09/20 00:35:40;;;;;;;9.60;7.05;;;;;;;15.17;99.25;98519.09;5024668;28;20024;-67
2021/09/20 00:38:06;;;;;;;10.52;6.68;;;;;;;15.21;98.53;98523.34;5025088;28;20140;-67
2021/09/20 00:40:31;;;;;;;10.60;5.97;;;;;;;15.20;98.24;98524.28;5025058;28;20033;-68
2021/09/20 00:42:57;;;;;;;7.10;5.57;;;;;;;15.19;98.48;98519.91;5024645;28;21211;-68
2021/09/20 00:45:22;;;;;;;8.80;5.75;;;;;;;15.21;97.97;98518.03;5024437;28;20190;-68
2021/09/20 00:47:48;;;;;;;8.25;5.43;;;;;;;15.22;97.96;98525.06;5024483;28;20026;-68
2021/09/20 00:50:13;;;;;;;8.38;5.20;;;;;;;15.20;98.08;98524.28;5024836;28;20084;-68
2021/09/20 00:52:39;;;;;;;7.95;5.78;;;;;;;15.18;98.13;98523.47;5024742;28;20241;-68
2021/09/20 00:55:06;;;;;;;9.25;5.93;;;;;;;15.16;98.13;98525.34;5024858;28;20026;-68
2021/09/20 00:57:32;;;;;;;11.57;6.28;;;;;;;15.11;98.57;98522.00;5024831;28;20021;-68
2021/09/20 00:59:58;;;;;;;11.20;5.55;;;;;;;15.13;98.97;98525.47;5024748;28;20033;-68
2021/09/20 01:02:24;;;;;;;9.75;4.88;;;;;;;15.15;98.88;98526.25;5024776;28;20014;-68
2021/09/20 01:04:49;;;;;;;9.35;5.88;;;;;;;15.09;98.64;98523.81;5024572;28;20025;-68
2021/09/20 01:07:14;;;;;;;11.98;6.50;;;;;;;15.12;99.57;98519.28;5024266;28;20060;-68
2021/09/20 01:09:41;;;;;;;7.97;5.78;;;;;;;15.13;99.34;98530.75;5024697;28;20090;-68
2021/09/20 01:12:08;;;;;;;9.77;6.28;;;;;;;15.15;99.13;98518.28;5020693;28;20026;-68
2021/09/20 01:14:34;;;;;;;8.50;6.05;;;;;;;15.14;99.62;98521.88;5024316;28;20080;-68
2021/09/20 01:16:59;;;;;;;8.85;5.50;;;;;;;15.15;99.31;98534.19;5024626;28;20017;-68
2021/09/20 01:19:25;;;;;;;10.43;6.60;;;;;;;15.12;99.39;98523.72;5024589;28;20245;-68
2021/09/20 01:21:51;;;;;;;8.75;4.97;;;;;;;15.12;99.40;98521.06;5006723;28;20049;-66
2021/09/20 01:24:17;;;;;;;7.90;5.82;;;;;;;15.15;99.15;98523.59;5024360;28;20029;-66
2021/09/20 01:26:42;;;;;;;8.70;5.43;;;;;;;15.13;99.11;98520.16;5006749;28;20076;-66
2021/09/20 01:29:08;;;;;;;8.10;5.57;;;;;;;15.10;99.26;98517.63;5024670;28;20351;-66
2021/09/20 01:31:33;;;;;;;9.40;5.57;;;;;;;15.12;99.50;98529.00;5024408;28;20030;-66
2021/09/20 01:33:59;;;;;;;8.55;5.22;;;;;;;15.13;99.65;98517.50;5024229;28;20033;-66
2021/09/20 01:36:24;;;;;;;15.43;5.63;;;;;;;15.10;99.50;98521.13;5024579;28;20028;-66
2021/09/20 01:38:50;;;;;;;9.93;5.70;;;;;;;15.08;99.55;98522.09;5027944;28;20061;-66
2021/09/20 01:41:15;;;;;;;7.40;5.38;;;;;;;15.07;99.57;98517.75;5028007;28;20014;-66
2021/09/20 01:43:41;;;;;;;7.65;4.65;;;;;;;15.07;99.70;98520.38;5027865;28;20018;-66
2021/09/20 01:46:06;;;;;;;10.25;6.00;;;;;;;15.08;99.53;98511.50;5027247;28;20022;-66
2021/09/20 01:48:32;;;;;;;10.35;5.60;;;;;;;15.10;99.39;98510.50;5010516;28;20246;-66
2021/09/20 01:50:57;;;;;;;9.00;5.55;;;;;;;15.11;99.68;98511.38;5027776;28;20093;-66
2021/09/20 01:53:23;;;;;;;9.63;5.50;;;;;;;15.12;99.43;98513.09;5027732;28;20018;-66
2021/09/20 01:55:48;;;;;;;8.27;5.50;;;;;;;15.07;99.65;98515.09;5028104;28;20053;-66
2021/09/20 01:58:14;;;;;;;9.02;5.55;;;;;;;15.08;100.00;98514.16;5027714;28;20022;-66
2021/09/20 02:00:43;;;;;;;8.73;6.07;;;;;;;15.08;99.91;98511.50;5027535;28;20364;-66
2021/09/20 02:03:10;;;;;;;8.40;5.88;;;;;;;15.08;99.86;98516.81;5027498;28;20383;-66
2021/09/20 02:05:35;;;;;;;8.30;5.80;;;;;;;15.07;99.27;98510.63;5027298;28;20024;-66
2021/09/20 02:08:01;;;;;;;8.80;5.63;;;;;;;15.07;99.20;98520.38;5027602;28;20061;-66
2021/09/20 02:10:26;;;;;;;12.23;5.47;;;;;;;15.01;98.80;98516.19;5009572;28;20329;-66
2021/09/20 02:12:51;;;;;;;10.30;5.60;;;;;;;15.02;98.69;98522.34;5027537;28;20089;-66
2021/09/20 02:15:17;;;;;;;10.18;6.43;;;;;;;14.95;98.90;98526.16;5027101;28;20018;-66
2021/09/20 02:17:42;;;;;;;9.93;6.05;;;;;;;14.82;99.13;98524.91;5009337;28;20381;-66
2021/09/20 02:20:09;;;;;;;9.85;6.38;;;;;;;14.82;99.33;98524.91;5027305;28;20089;-66
2021/09/20 02:22:34;;;;;;;9.98;5.65;;;;;;;14.83;99.23;98523.97;5027628;28;20014;-66
2021/09/20 02:25:03;;;;;;;9.20;5.80;;;;;;;14.79;99.63;98530.31;5027088;28;20101;-66
2021/09/20 02:27:28;;;;;;;8.52;5.68;;;;;;;14.77;99.14;98526.84;5026414;28;20022;-66
2021/09/20 02:29:54;;;;;;;11.23;5.30;;;;;;;14.76;99.29;98525.13;5025317;28;20283;-66
2021/09/20 02:32:19;;;;;;;9.38;5.53;;;;;;;14.73;99.30;98525.25;5025214;28;20348;-66
2021/09/20 02:34:44;;;;;;;15.93;5.22;;;;;;;14.73;99.05;98525.25;5027174;28;20018;-65
2021/09/20 02:37:10;;;;;;;7.15;4.57;;;;;;;14.72;99.27;98529.66;5026710;28;20037;-66
2021/09/20 02:39:35;;;;;;;9.02;5.60;;;;;;;14.74;99.77;98524.31;5026880;28;20018;-66
2021/09/20 02:42:00;;;;;;;6.00;4.70;;;;;;;14.74;99.71;98526.97;5026943;28;20022;-66
2021/09/20 02:44:26;;;;;;;9.50;4.93;;;;;;;14.70;100.00;98526.22;5026551;28;20205;-66
2021/09/20 02:46:51;;;;;;;8.07;4.50;;;;;;;14.74;100.00;98526.97;5026881;28;20029;-66
2021/09/20 02:49:17;;;;;;;6.93;4.60;;;;;;;14.75;99.93;98528.72;5025647;28;20025;-66
2021/09/20 02:51:42;;;;;;;9.38;4.95;;;;;;;14.78;99.69;98528.59;5026594;28;20018;-66
2021/09/20 02:54:07;;;;;;;12.02;4.60;;;;;;;14.81;99.25;98528.47;5026449;28;20124;-66
2021/09/20 02:56:33;;;;;;;7.40;5.35;;;;;;;14.81;99.40;98529.31;5025950;28;20021;-66
2021/09/20 02:58:58;;;;;;;7.55;4.80;;;;;;;14.83;99.57;98526.63;5008801;28;20021;-66
2021/09/20 03:01:24;;;;;;;10.48;5.03;;;;;;;14.83;99.55;98527.50;5026557;28;20017;-66
2021/09/20 03:03:50;;;;;;;7.50;4.78;;;;;;;14.84;99.45;98528.38;5026022;28;20025;-66
2021/09/20 03:06:15;;;;;;;8.43;5.05;;;;;;;14.84;99.67;98528.38;5026305;28;20084;-66
2021/09/20 03:08:40;;;;;;;10.70;5.05;;;;;;;14.85;99.44;98535.38;5026495;28;20021;-66
2021/09/20 03:11:06;;;;;;;7.45;4.82;;;;;;;14.85;99.31;98530.09;5001552;28;20209;-66
2021/09/20 03:13:31;;;;;;;8.10;5.00;;;;;;;14.78;99.29;98529.44;5021154;28;20097;-66
2021/09/20 03:15:57;;;;;;;7.55;4.95;;;;;;;14.82;99.26;98528.44;5014701;28;20028;-66
2021/09/20 03:18:22;;;;;;;10.65;5.38;;;;;;;14.82;99.12;98530.19;5013644;28;20213;-66
2021/09/20 03:20:47;;;;;;;7.13;5.30;;;;;;;14.82;99.72;98531.06;5017623;28;20022;-66
2021/09/20 03:23:13;;;;;;;9.75;6.15;;;;;;;14.81;99.71;98539.09;5019996;28;20018;-66
2021/09/20 03:25:38;;;;;;;8.07;5.53;;;;;;;14.82;99.75;98535.50;5025956;28;20018;-66
2021/09/20 03:28:04;;;;;;;9.68;6.95;;;;;;;14.74;99.68;98532.25;5025670;28;20087;-66
2021/09/20 03:30:29;;;;;;;12.55;7.38;;;;;;;14.72;99.65;98534.13;5025765;28;20352;-66
2021/09/20 03:32:55;;;;;;;9.15;6.55;;;;;;;14.75;100.00;98529.56;5025551;28;20212;-66
2021/09/20 03:35:20;;;;;;;9.55;6.60;;;;;;;14.77;99.89;98537.44;5025690;28;20313;-66
2021/09/20 03:37:47;;;;;;;9.57;7.07;;;;;;;14.80;99.87;98537.31;5026013;28;20029;-66
2021/09/20 03:40:15;;;;;;;9.07;6.63;;;;;;;14.82;99.94;98531.06;5025679;28;20064;-66
2021/09/20 03:42:41;;;;;;;11.65;7.43;;;;;;;14.86;99.61;98526.50;5022820;28;20037;-66
2021/09/20 03:45:08;;;;;;;12.85;7.13;;;;;;;14.75;99.39;98528.72;5022301;28;20072;-66
2021/09/20 03:47:33;;;;;;;13.18;7.07;;;;;;;14.82;99.52;98532.84;5024673;28;20314;-66
2021/09/20 03:49:59;;;;;;;9.38;6.40;;;;;;;14.84;99.76;98533.66;5025626;28;20032;-66
2021/09/20 03:52:24;;;;;;;10.50;6.95;;;;;;;14.83;99.56;98537.22;5008628;28;20025;-66
2021/09/20 03:54:49;;;;;;;13.25;7.75;;;;;;;14.82;99.82;98536.38;5025482;28;20076;-66
2021/09/20 03:57:15;;;;;;;7.22;5.65;;;;;;;14.84;99.81;98528.38;5025498;28;20420;-66
2021/09/20 03:59:40;;;;;;;9.52;6.50;;;;;;;14.86;99.52;98532.69;5007503;28;20044;-66
2021/09/20 04:02:06;;;;;;;10.13;7.60;;;;;;;14.83;100.00;98531.91;5015513;28;20024;-66
2021/09/20 04:04:31;;;;;;;10.73;7.82;;;;;;;14.82;100.00;98535.50;5018398;28;20332;-66
2021/09/20 04:06:57;;;;;;;12.95;8.30;;;;;;;14.83;99.85;98534.56;5018798;28;20077;-66
2021/09/20 04:09:23;;;;;;;13.75;9.15;;;;;;;14.83;99.85;98537.22;5022782;28;20014;-65
2021/09/20 04:11:49;;;;;;;12.52;8.07;;;;;;;14.80;100.00;98538.22;5024486;28;20021;-65
2021/09/20 04:14:15;;;;;;;14.75;8.32;;;;;;;14.85;100.00;98535.38;5024270;28;20049;-65
2021/09/20 04:16:41;;;;;;;12.82;8.43;;;;;;;14.85;99.89;98541.56;5024274;28;20397;-65
2021/09/20 04:19:06;;;;;;;12.07;8.73;;;;;;;14.88;99.43;98537.91;5024046;28;20197;-65
2021/09/20 04:21:32;;;;;;;12.90;9.13;;;;;;;14.83;99.83;98537.22;5025005;28;20340;-65
2021/09/20 04:23:57;;;;;;;13.18;8.55;;;;;;;14.84;99.94;98536.31;5025123;28;20351;-65
2021/09/20 04:26:23;;;;;;;11.85;8.40;;;;;;;14.78;100.00;98533.91;5025145;28;20225;-65
2021/09/20 04:28:48;;;;;;;11.95;7.68;;;;;;;14.82;100.00;98540.81;5025126;28;20029;-65
2021/09/20 04:31:14;;;;;;;13.80;8.38;;;;;;;14.84;100.00;98549.56;5024911;28;20022;-65
2021/09/20 04:33:39;;;;;;;12.25;8.52;;;;;;;14.84;99.51;98541.63;5024805;28;20348;-65
2021/09/20 04:36:04;;;;;;;13.00;9.38;;;;;;;14.86;99.51;98547.69;5007221;28;20319;-65
2021/09/20 04:38:30;;;;;;;13.23;9.50;;;;;;;14.87;99.58;98549.41;5024967;28;20033;-65
2021/09/20 04:40:55;;;;;;;18.50;8.63;;;;;;;14.88;99.78;98551.16;5024746;28;20032;-65
2021/09/20 04:43:21;;;;;;;13.48;9.50;;;;;;;14.86;99.74;98553.88;5025250;28;20026;-65
2021/09/20 04:45:46;;;;;;;16.42;9.55;;;;;;;14.88;99.82;98545.88;5025033;28;20044;-65
2021/09/20 04:48:12;;;;;;;14.57;10.30;;;;;;;14.85;99.71;98549.50;5025049;28;20026;-65
2021/09/20 04:50:43;;;;;;;15.63;10.18;;;;;;;14.83;99.48;98554.00;5024871;28;20026;-65
2021/09/20 04:53:10;;;;;;;13.83;9.60;;;;;;;14.88;99.45;98556.47;5007618;28;20018;-65
2021/09/20 04:55:36;;;;;;;16.08;10.68;;;;;;;14.85;99.31;98556.59;5025117;28;20032;-65
2021/09/20 04:58:06;;;;;;;15.43;10.02;;;;;;;14.87;99.55;98560.91;5025064;28;20214;-65
2021/09/20 05:00:31;;;;;;;13.88;9.15;;;;;;;14.85;99.41;98567.19;5025079;28;20329;-65
2021/09/20 05:02:57;;;;;;;16.33;10.18;;;;;;;14.82;99.48;98562.88;5024976;28;20033;-65
2021/09/20 05:05:22;;;;;;;16.85;10.40;;;;;;;14.79;99.43;98570.06;5025024;28;20022;-65
2021/09/20 05:07:48;;;;;;;14.55;10.13;;;;;;;14.78;99.39;98565.69;5024922;28;20038;-65
2021/09/20 05:10:15;;;;;;;18.77;10.60;;;;;;;14.77;99.20;98569.25;5025146;28;20266;-65
2021/09/20 05:12:40;;;;;;;19.45;11.90;;;;;;;14.77;99.28;98579.84;5026816;28;20108;-65
2021/09/20 05:15:06;;;;;;;22.30;13.18;;;;;;;14.75;99.55;98579.06;5029025;28;20018;-65
2021/09/20 05:17:31;;;;;;;21.58;12.52;;;;;;;14.75;99.74;98576.41;5028833;28;20237;-65
2021/09/20 05:19:57;;;;;;;24.30;14.55;;;;;;;14.70;100.00;98579.22;5028721;28;20029;-65
2021/09/20 05:22:22;;;;;;;22.15;13.82;;;;;;;14.70;100.00;98584.50;5028769;28;20088;-65
2021/09/20 05:24:48;;;;;;;23.60;13.65;;;;;;;14.71;100.00;98580.06;5028561;28;20026;-65
2021/09/20 05:27:13;;;;;;;27.67;14.57;;;;;;;14.73;100.00;98578.22;5028543;28;20056;-65
2021/09/20 05:29:39;;;;;;;20.75;14.02;;;;;;;14.73;100.00;98579.09;5028574;28;20025;-65
2021/09/20 05:32:04;;;;;;;23.58;13.63;;;;;;;14.69;100.00;98589.88;5028261;28;20026;-65
2021/09/20 05:34:30;;;;;;;21.83;13.23;;;;;;;14.71;100.00;98586.22;5028147;28;20022;-65
2021/09/20 05:36:56;;;;;;;22.27;12.63;;;;;;;14.62;100.00;98593.66;5028353;28;20034;-65
2021/09/20 05:39:21;;;;;;;24.15;12.50;;;;;;;14.67;100.00;98586.41;5028185;28;20022;-65
2021/09/20 05:41:46;;;;;;;18.58;10.90;;;;;;;14.69;100.00;98592.50;5028157;28;20022;-65
2021/09/20 05:44:12;;;;;;;19.02;11.50;;;;;;;14.64;100.00;98583.84;5028232;28;20092;-65
2021/09/20 05:46:37;;;;;;;16.05;9.93;;;;;;;14.71;100.00;98594.19;5028098;28;20064;-65
2021/09/20 05:49:03;;;;;;;15.18;9.95;;;;;;;14.68;100.00;98590.78;5010756;28;20017;-65
2021/09/20 05:51:28;;;;;;;13.05;9.35;;;;;;;14.65;100.00;98586.44;5027820;28;20049;-65
2021/09/20 05:53:54;;;;;;;13.73;9.55;;;;;;;14.59;100.00;98591.13;5028096;28;20361;-65
2021/09/20 05:56:19;;;;;;;13.07;8.98;;;;;;;14.64;100.00;98595.31;5028031;28;20052;-65
2021/09/20 05:58:44;;;;;;;15.05;8.93;;;;;;;14.64;100.00;98600.63;5027950;28;20225;-65
2021/09/20 06:01:10;;;;;;;14.52;9.52;;;;;;;14.59;100.00;98599.06;5010450;28;20233;-65
2021/09/20 06:03:36;;;;;;;14.50;9.52;;;;;;;14.63;100.00;98592.72;5010332;28;20022;-65
2021/09/20 06:06:01;;;;;;;14.18;9.07;;;;;;;14.59;100.00;98599.91;5028037;28;20262;-65
2021/09/20 06:08:26;;;;;;;17.88;9.65;;;;;;;14.59;100.00;98601.72;5027617;28;20045;-67
2021/09/20 06:10:52;;;;;;;13.75;8.05;;;;;;;14.62;100.00;98606.91;5027567;28;20045;-67
2021/09/20 06:13:17;;;;;;;14.30;8.70;;;;;;;14.61;100.00;98605.16;5027650;28;20209;-67
2021/09/20 06:15:43;;;;;;;14.55;9.00;;;;;;;14.64;100.00;98602.41;5027864;28;20057;-67
2021/09/20 06:18:09;;;;;;;13.18;8.98;;;;;;;14.66;100.00;98598.81;5027736;28;20022;-67
2021/09/20 06:20:35;;;;;;;14.20;9.02;;;;;;;14.59;100.00;98601.72;5010185;28;20046;-67
2021/09/20 06:23:00;;;;;;;18.65;9.02;;;;;;;14.50;100.00;98602.03;5027538;28;20045;-67
2021/09/20 06:25:26;;;;;;;13.35;7.85;;;;;;;14.52;100.00;98602.81;5027379;28;20329;-67
2021/09/20 06:27:52;;;;;;;14.77;7.80;;;;;;;14.58;100.00;98605.25;5027619;28;20018;-67
2021/09/20 06:30:18;;;;;;;13.02;7.90;;;;;;;14.59;100.00;98612.31;5027517;28;20396;-67
2021/09/20 06:32:43;;;;;;;13.10;8.80;;;;;;;14.62;100.00;98612.22;5027439;28;20032;-67
2021/09/20 06:35:10;;;;;;;12.07;7.68;;;;;;;14.67;100.00;98611.13;5027548;28;20026;-67
2021/09/20 06:37:36;;;;;;;11.50;7.88;;;;;;;14.73;100.00;98607.38;5027255;28;20060;-67
2021/09/20 06:40:03;;;;;;;13.10;8.38;;;;;;;14.74;100.00;98601.16;5027420;28;20030;-67
2021/09/20 06:42:28;;;;;;;11.77;8.50;;;;;;;14.75;100.00;98605.53;5027315;28;20022;-67
2021/09/20 06:44:54;;;;;;;14.38;8.27;;;;;;;14.77;100.00;98606.34;5027129;28;20022;-67
2021/09/20 06:47:21;;;;;;;14.57;8.48;;;;;;;14.75;100.00;98602.91;5027144;28;20314;-68
2021/09/20 06:49:47;;;;;;;15.25;8.15;;;;;;;14.87;100.00;98607.72;5027178;28;20017;-68
2021/09/20 06:52:12;;;;;;;13.57;8.48;;;;;;;14.89;100.00;98613.84;5026924;28;20029;-68
2021/09/20 06:54:38;;;;;;;14.65;8.88;;;;;;;14.92;100.00;98611.06;5027101;28;20025;-68
2021/09/20 06:57:03;;;;;;;17.65;9.20;;;;;;;14.97;100.00;98619.75;5027114;28;20325;-68
2021/09/20 06:59:28;;;;;;;16.85;8.38;;;;;;;14.99;100.00;98613.44;5026940;28;20022;-68
2021/09/20 07:01:54;;;;;;;16.95;9.60;;;;;;;14.99;100.00;98612.56;5026796;28;20336;-68
2021/09/20 07:04:19;;;;;;;14.98;8.85;;;;;;;15.07;100.00;98618.47;5026703;28;20123;-68
2021/09/20 07:06:45;;;;;;;15.35;9.20;;;;;;;15.07;100.00;98610.50;5026558;28;20105;-68
2021/09/20 07:09:12;;;;;;;17.45;9.32;;;;;;;15.06;100.00;98616.72;5026908;28;20018;-68
2021/09/20 07:11:37;;;;;;;17.77;9.20;;;;;;;15.04;100.00;98615.94;5026529;28;20093;-68
2021/09/20 07:14:02;;;;;;;14.88;9.07;;;;;;;15.01;100.00;98616.03;5026619;28;20028;-68
2021/09/20 07:16:28;;;;;;;19.23;11.10;;;;;;;15.01;100.00;98616.03;5026440;28;20045;-68
2021/09/20 07:18:53;;;;;;;15.68;10.40;;;;;;;15.01;100.00;98624.00;5026288;28;20021;-67
2021/09/20 07:21:22;;;;;;;15.15;10.43;;;;;;;15.05;100.00;98617.66;5026387;28;20317;-67
2021/09/20 07:23:47;;;;;;;16.80;9.80;;;;;;;15.12;100.00;98620.03;5026381;28;20089;-67
2021/09/20 07:26:13;;;;;;;17.90;9.77;;;;;;;15.14;100.00;98618.19;5026461;28;20037;-67
2021/09/20 07:28:38;;;;;;;17.55;9.23;;;;;;;15.21;100.00;98626.75;5026274;28;20359;-67
2021/09/20 07:31:04;;;;;;;18.95;11.32;;;;;;;15.22;99.89;98624.97;5026335;28;20267;-67
2021/09/20 07:33:29;;;;;;;15.50;10.25;;;;;;;15.33;100.00;98622.78;5026201;28;20041;-67
2021/09/20 07:35:54;;;;;;;19.27;9.88;;;;;;;15.36;99.48;98627.97;5025647;28;20089;-67
2021/09/20 07:38:20;;;;;;;16.77;10.32;;;;;;;15.37;99.96;98627.94;5026114;28;20026;-67
2021/09/20 07:40:46;;;;;;;15.77;9.77;;;;;;;15.37;99.76;98630.59;5026168;28;20022;-67
2021/09/20 07:43:11;;;;;;;15.00;9.85;;;;;;;15.41;99.43;98637.50;5026202;28;20029;-67
2021/09/20 07:45:38;;;;;;;13.88;9.15;;;;;;;15.48;98.88;98641.66;5008518;28;20029;-67
2021/09/20 07:48:04;;;;;;;17.40;10.70;;;;;;;15.49;99.84;98635.41;5025919;28;20022;-67
2021/09/20 07:50:30;;;;;;;14.93;10.23;;;;;;;15.52;99.47;98631.78;5025801;28;20021;-67
2021/09/20 07:52:55;;;;;;;15.38;9.88;;;;;;;15.57;99.32;98638.66;5025646;28;20033;-67
2021/09/20 07:55:21;;;;;;;15.45;9.93;;;;;;;15.63;99.55;98641.03;5025756;28;20049;-67
2021/09/20 07:57:46;;;;;;;15.52;10.35;;;;;;;15.64;99.36;98644.56;5025505;28;20021;-67
2021/09/20 08:00:13;;;;;;;13.65;9.07;;;;;;;15.68;99.31;98652.34;5025754;28;20029;-67
2021/09/20 08:02:38;;;;;;;15.80;9.43;;;;;;;15.78;98.05;98648.41;5025782;28;20021;-67
2021/09/20 08:05:05;;;;;;;16.20;9.77;;;;;;;15.85;98.37;98644.56;5025559;28;20075;-67
2021/09/20 08:07:30;;;;;;;15.68;10.05;;;;;;;15.83;98.13;98646.44;5025288;28;20080;-67
2021/09/20 08:09:57;;;;;;;16.23;10.25;;;;;;;15.93;98.19;98650.44;5025565;28;20025;-67
2021/09/20 08:12:22;;;;;;;14.73;10.07;;;;;;;15.92;98.21;98651.38;5025573;28;20029;-67
2021/09/20 08:14:47;;;;;;;16.92;11.00;;;;;;;15.94;98.30;98649.50;5025498;28;20025;-67
2021/09/20 08:17:13;;;;;;;16.83;10.82;;;;;;;15.83;97.35;98651.75;5025477;28;20024;-67
2021/09/20 08:19:39;;;;;;;18.38;11.10;;;;;;;15.89;97.01;98655.94;5008174;28;20018;-67
2021/09/20 08:22:05;;;;;;;18.25;10.70;;;;;;;15.83;98.08;98662.38;5025497;28;20018;-67
2021/09/20 08:24:31;;;;;;;18.45;10.60;;;;;;;15.85;97.52;98657.84;5025327;28;20394;-67
2021/09/20 08:26:57;;;;;;;16.20;9.77;;;;;;;15.81;97.24;98664.22;5025206;28;20190;-67
2021/09/20 08:29:23;;;;;;;17.38;9.77;;;;;;;15.82;98.03;98665.94;5025153;28;20248;-67
2021/09/20 08:31:49;;;;;;;16.67;9.63;;;;;;;15.82;97.36;98665.94;5025167;28;20026;-67
2021/09/20 08:34:14;;;;;;;20.13;11.15;;;;;;;15.79;96.55;98666.03;5025268;28;20089;-67
2021/09/20 08:36:40;;;;;;;17.63;10.55;;;;;;;15.74;97.88;98683.09;5025187;28;20022;-67
2021/09/20 08:39:05;;;;;;;18.45;11.10;;;;;;;15.76;98.05;98676.78;5025106;28;20025;-67
2021/09/20 08:41:31;;;;;;;15.88;10.85;;;;;;;15.73;97.14;98686.66;5024947;28;20018;-67
2021/09/20 08:43:56;;;;;;;18.75;11.68;;;;;;;15.69;97.37;98680.59;5024960;28;20041;-67
2021/09/20 08:46:22;;;;;;;19.02;11.45;;;;;;;15.69;97.23;98685.91;5024259;28;20022;-67
2021/09/20 08:48:48;;;;;;;17.90;10.65;;;;;;;15.73;97.34;98687.53;5024861;28;20040;-67
2021/09/20 08:51:18;;;;;;;18.85;10.05;;;;;;;15.77;97.31;98689.16;5024963;28;20022;-67
2021/09/20 08:53:44;;;;;;;16.67;9.48;;;;;;;15.80;96.17;98689.03;5024971;28;20021;-67
2021/09/20 08:56:10;;;;;;;16.13;9.48;;;;;;;15.80;96.46;98683.72;5025115;28;20026;-67
2021/09/20 08:58:35;;;;;;;15.68;9.35;;;;;;;15.71;95.31;98694.69;5025010;28;20044;-67
2021/09/20 09:01:01;;;;;;;16.73;9.23;;;;;;;15.72;96.00;98687.59;5024797;28;20021;-67
2021/09/20 09:03:29;;;;;;;12.63;8.55;;;;;;;15.84;96.39;98698.59;5024890;28;20022;-67
2021/09/20 09:05:54;;;;;;;16.85;8.30;;;;;;;15.88;96.20;98694.88;5024856;28;20022;-67
2021/09/20 09:08:31;;;;;;;16.25;8.50;;;;;;;15.97;95.80;98696.31;5024725;28;20041;-67
2021/09/20 09:11:07;;;;;;;15.25;9.10;;;;;;;16.00;94.84;98699.72;5024751;28;20021;-67
2021/09/20 09:13:38;;;;;;;18.63;8.55;;;;;;;16.07;94.40;98700.34;5025103;28;20017;-67
2021/09/20 09:16:26;;;;;;;15.60;9.68;;;;;;;16.11;94.61;98694.81;5024990;28;20225;-67
2021/09/20 09:19:08;;;;;;;13.18;8.15;;;;;;;16.13;94.67;98698.28;5024659;28;20076;-67
2021/09/20 09:21:42;;;;;;;12.73;8.50;;;;;;;16.13;94.58;98697.41;5024879;28;20014;-67
2021/09/20 09:24:14;;;;;;;15.23;8.60;;;;;;;16.12;94.90;98701.88;5024581;28;20026;-67
2021/09/20 09:26:57;;;;;;;17.40;9.30;;;;;;;16.07;94.33;98698.53;5024400;28;20021;-67
2021/09/20 09:29:23;;;;;;;12.77;8.18;;;;;;;16.10;94.01;98693.09;5024520;28;20076;-68
2021/09/20 09:31:54;;;;;;;15.32;9.45;;;;;;;16.05;94.73;98707.50;5024654;28;20025;-68
2021/09/20 09:34:26;;;;;;;12.80;8.70;;;;;;;15.98;93.42;98704.22;5024512;28;20317;-68
2021/09/20 09:37:05;;;;;;;15.18;9.45;;;;;;;16.12;94.37;98696.56;5024665;28;20203;-68
2021/09/20 09:39:30;;;;;;;15.20;9.30;;;;;;;16.20;93.30;98699.75;5024662;28;20339;-68
2021/09/20 09:41:56;;;;;;;14.70;8.43;;;;;;;16.27;93.84;98701.28;5024455;28;20013;-68
2021/09/20 09:44:33;;;;;;;17.15;9.38;;;;;;;16.22;94.27;98705.91;5024467;28;20028;-68
2021/09/20 09:46:59;;;;;;;16.58;9.35;;;;;;;16.24;94.60;98698.75;5024449;28;20025;-68
2021/09/20 09:49:27;;;;;;;14.45;8.82;;;;;;;16.34;93.93;98702.75;5024274;28;20033;-68
2021/09/20 09:52:10;;;;;;;14.45;9.00;;;;;;;16.44;94.54;98704.13;5024319;28;20029;-68
2021/09/20 09:54:40;;;;;;;15.45;8.90;;;;;;;16.49;91.67;98704.78;5024669;28;20037;-68
2021/09/20 09:57:23;;;;;;;11.52;7.13;;;;;;;16.59;90.92;98706.16;5024429;28;20029;-68
2021/09/20 09:59:59;;;;;;;14.95;9.10;;;;;;;16.67;94.14;98711.97;5027760;28;20321;-68
2021/09/20 10:02:30;;;;;;;15.93;8.65;;;;;;;16.75;92.71;98704.56;5028004;28;20017;-68
2021/09/20 10:05:08;;;;;;;14.25;9.38;;;;;;;16.76;90.24;98706.28;5027971;28;20021;-68
2021/09/20 10:07:40;;;;;;;15.32;8.00;;;;;;;16.72;91.25;98711.78;5027628;28;20056;-68
2021/09/20 10:10:11;;;;;;;15.25;8.35;;;;;;;16.70;91.59;98711.84;5027926;28;20048;-68
2021/09/20 10:12:38;;;;;;;14.52;8.50;;;;;;;16.70;90.85;98711.84;5027639;28;20025;-68
2021/09/20 10:15:07;;;;;;;14.68;8.68;;;;;;;16.71;90.05;98702.94;5027660;28;20014;-68
2021/09/20 10:17:33;;;;;;;13.48;8.15;;;;;;;16.63;91.02;98710.41;5027331;28;20241;-68
2021/09/20 10:20:00;;;;;;;20.73;8.40;;;;;;;16.58;92.01;98712.38;5027489;28;20028;-68
2021/09/20 10:22:27;;;;;;;14.80;8.38;;;;;;;16.53;91.24;98719.69;5027173;28;20013;-68
2021/09/20 10:24:54;;;;;;;15.45;8.57;;;;;;;16.51;91.46;98715.34;5027255;28;20092;-68
2021/09/20 10:27:22;;;;;;;14.77;8.18;;;;;;;16.40;91.15;98713.13;5009879;28;20093;-68
2021/09/20 10:29:51;;;;;;;16.60;8.50;;;;;;;16.37;91.59;98715.91;5027376;28;20026;-68
2021/09/20 10:32:18;;;;;;;14.00;7.15;;;;;;;16.53;91.66;98713.50;5026993;28;20317;-68
2021/09/20 10:34:44;;;;;;;12.13;7.70;;;;;;;16.50;92.06;98714.50;5027175;28;20025;-68
2021/09/20 10:37:12;;;;;;;14.85;7.97;;;;;;;16.75;91.40;98711.66;5027104;28;20026;-68
2021/09/20 10:39:51;;;;;;;17.88;7.68;;;;;;;16.97;89.98;98716.00;5026899;28;20014;-68
2021/09/20 10:42:35;;;;;;;11.43;7.32;;;;;;;17.27;90.03;98711.97;5027165;28;20301;-68
2021/09/20 10:45:06;;;;;;;14.60;7.93;;;;;;;17.25;89.02;98711.16;5027205;28;20022;-68
2021/09/20 10:47:42;;;;;;;10.37;7.30;;;;;;;17.21;88.66;98712.25;5010241;28;20028;-68
2021/09/20 10:50:08;;;;;;;14.48;7.63;;;;;;;17.15;87.51;98720.50;5027134;28;20029;-68
2021/09/20 10:52:33;;;;;;;13.70;6.80;;;;;;;17.36;87.57;98712.47;5026920;28;20032;-68
2021/09/20 10:55:08;;;;;;;11.80;7.55;;;;;;;17.38;80.92;98721.25;5026982;28;20026;-68
2021/09/20 10:57:36;;;;;;;15.77;7.82;;;;;;;17.36;88.27;98920.00;5027150;28;20358;-68
2021/09/20 11:00:24;;;;;;;12.32;7.80;;;;;;;17.39;87.57;100400.59;5026705;28;20022;-68
2021/09/20 11:02:50;;;;;;;13.45;7.78;;;;;;;17.52;87.56;98841.31;5026646;28;20080;-68
2021/09/20 11:05:16;;;;;;;12.80;7.90;;;;;;;17.54;88.12;98732.97;5026622;28;20028;-66
2021/09/20 11:07:49;;;;;;;13.98;8.77;;;;;;;17.59;87.32;98730.97;5026464;28;20037;-66
2021/09/20 11:10:17;;;;;;;12.73;7.43;;;;;;;17.65;87.32;98736.88;5025819;28;20309;-66
2021/09/20 11:13:06;;;;;;;14.93;8.73;;;;;;;17.47;87.77;98735.06;5026359;28;20022;-66
2021/09/20 11:15:40;;;;;;;13.73;7.60;;;;;;;17.49;87.78;98740.31;5026339;28;20068;-66
2021/09/20 11:18:06;;;;;;;13.95;8.32;;;;;;;17.46;87.61;98740.47;5026575;28;20045;-66
2021/09/20 11:20:40;;;;;;;13.40;8.57;;;;;;;17.50;87.17;98736.72;5026054;28;20041;-66
2021/09/20 11:23:24;;;;;;;16.38;8.70;;;;;;;17.45;88.15;98738.72;5026271;28;20013;-66